Time;durP1;ratioP1;P1;durP2;ratioP2;P2;SDS_P1;SDS_P2;PMS_P1;PMS_P2;Temp;Humidity;BMP_temperature;BMP_pressure;BME280_temperature;BME280_humidity;BME280_pressure;Samples;Min_cycle;Max_cycle;Signal;HPM_P1;HPM_P2
2023/12/23 00:01:34;;;;;;;41.47;27.08;;;179.30;2252.80;;;;;;5052002;28;20021;-56
2023/12/23 00:04:01;;;;;;;51.72;32.42;;;154.50;2252.80;;;;;;5052506;28;20037;-58
2023/12/23 00:06:27;;;;;;;284.27;136.95;;;154.50;2252.80;;;;;;5063059;28;20086;-56
2023/12/23 00:08:52;;;;;;;146.10;85.07;;;154.50;2252.80;;;;;;5052011;28;20017;-55
2023/12/23 00:11:18;;;;;;;199.95;129.00;;;154.30;2252.80;;;;;;5052689;28;20033;-55
2023/12/23 00:13:44;;;;;;;223.00;140.40;;;154.00;2252.80;;;;;;5051097;28;20049;-55
2023/12/23 00:16:09;;;;;;;212.95;137.65;;;154.00;2252.80;;;;;;5056368;28;20049;-55
2023/12/23 00:18:35;;;;;;;244.50;149.15;;;154.20;2252.80;;;;;;5051615;28;20025;-56
2023/12/23 00:21:01;;;;;;;313.20;186.60;;;154.10;2252.80;;;;;;5051900;28;20387;-57
2023/12/23 00:23:27;;;;;;;203.48;127.45;;;154.00;2252.80;;;;;;5053642;28;20477;-55
2023/12/23 00:25:53;;;;;;;201.68;124.18;;;153.90;2252.80;;;;;;5058509;28;20028;-55
2023/12/23 00:28:18;;;;;;;222.88;144.07;;;154.00;2252.80;;;;;;5058668;28;20029;-54
2023/12/23 00:30:44;;;;;;;227.90;141.70;;;153.90;2252.80;;;;;;5052816;28;20025;-56
2023/12/23 00:33:10;;;;;;;193.73;118.72;;;154.10;2252.80;;;;;;5055036;28;20028;-55
2023/12/23 00:35:35;;;;;;;176.98;112.45;;;154.00;2252.80;;;;;;5070087;28;20128;-55
2023/12/23 00:38:02;;;;;;;160.50;103.00;;;154.10;2252.80;;;;;;5071568;28;20093;-56
2023/12/23 00:40:27;;;;;;;149.38;97.57;;;154.10;2252.80;;;;;;5057924;28;20423;-55
2023/12/23 00:42:53;;;;;;;144.85;88.82;;;154.20;2252.80;;;;;;5068063;28;20098;-56
2023/12/23 00:45:19;;;;;;;135.32;86.85;;;154.20;2252.80;;;;;;5063481;28;20421;-55
2023/12/23 00:47:45;;;;;;;130.05;80.95;;;154.10;2252.80;;;;;;5062929;28;20021;-55
2023/12/23 00:50:10;;;;;;;169.57;101.57;;;154.00;2252.80;;;;;;5059523;28;20490;-55
2023/12/23 00:52:36;;;;;;;117.63;70.88;;;154.00;2252.80;;;;;;5062347;28;20048;-55
2023/12/23 00:55:02;;;;;;;115.80;75.75;;;153.90;2252.80;;;;;;5055668;28;20037;-55
2023/12/23 00:57:28;;;;;;;116.25;74.53;;;153.90;2252.80;;;;;;5062087;28;20422;-55
2023/12/23 00:59:57;;;;;;;110.28;74.35;;;154.00;2252.80;;;;;;5063073;28;20029;-55
2023/12/23 01:02:23;;;;;;;111.60;67.63;;;154.00;2252.80;;;;;;5054615;28;20025;-54
2023/12/23 01:04:49;;;;;;;83.93;58.28;;;154.10;2252.80;;;;;;5054649;28;20033;-55
2023/12/23 01:07:15;;;;;;;82.22;51.42;;;154.00;2252.80;;;;;;5054837;28;20025;-55
2023/12/23 01:09:41;;;;;;;68.65;46.75;;;153.90;2252.80;;;;;;5054936;28;20367;-54
2023/12/23 01:12:07;;;;;;;80.55;50.38;;;154.00;2252.80;;;;;;5054444;28;20029;-54
2023/12/23 01:14:33;;;;;;;81.07;52.15;;;154.10;2252.80;;;;;;5054934;28;20423;-54
2023/12/23 01:16:58;;;;;;;71.22;44.20;;;154.10;2252.80;;;;;;5054629;28;20387;-55
2023/12/23 01:19:24;;;;;;;63.53;40.35;;;154.10;2252.80;;;;;;5054525;28;20021;-55
2023/12/23 01:25:12;;;;;;;69.00;44.13;;;153.80;2252.80;;;;;;5054542;28;20079;-54
2023/12/23 01:27:37;;;;;;;71.03;42.28;;;154.10;2252.80;;;;;;5054388;28;20052;-54
2023/12/23 01:30:04;;;;;;;74.53;46.05;;;128.90;2252.80;;;;;;5054276;28;20099;-56
2023/12/23 01:32:30;;;;;;;72.97;46.28;;;128.80;2252.80;;;;;;5053941;28;20031;-54
2023/12/23 01:34:55;;;;;;;58.15;38.25;;;128.80;2252.80;;;;;;5054342;28;20037;-55
2023/12/23 01:37:21;;;;;;;69.22;42.20;;;128.80;2252.80;;;;;;5054242;28;20526;-57
2023/12/23 01:39:47;;;;;;;61.80;38.35;;;128.90;2252.80;;;;;;5054168;28;20025;-54
2023/12/23 01:42:13;;;;;;;58.85;36.65;;;153.60;2252.80;;;;;;5053599;28;20025;-57
2023/12/23 01:44:38;;;;;;;97.70;59.90;;;153.80;2252.80;;;;;;5053816;28;20049;-57
2023/12/23 01:47:05;;;;;;;78.53;47.10;;;153.70;2252.80;;;;;;5053217;28;20058;-57
2023/12/23 01:49:31;;;;;;;112.10;83.57;;;153.80;2252.80;;;;;;5053662;28;20032;-55
2023/12/23 01:55:19;;;;;;;224.38;105.30;;;153.80;2252.80;;;;;;5054023;28;20398;-55
2023/12/23 01:57:45;;;;;;;666.35;346.55;;;153.90;2252.80;;;;;;5053990;28;20017;-54
2023/12/23 02:00:11;;;;;;;98.15;50.38;;;153.90;2252.80;;;;;;5053647;28;20359;-58
2023/12/23 02:02:38;;;;;;;136.38;64.00;;;153.90;2252.80;;;;;;5053563;28;20069;-58
2023/12/23 02:05:08;;;;;;;335.70;164.45;;;154.00;2252.80;;;;;;5053765;28;20491;-57
2023/12/23 02:07:34;;;;;;;133.23;67.60;;;154.00;2252.80;;;;;;5053704;28;20387;-56
2023/12/23 02:10:01;;;;;;;70.75;37.55;;;154.20;2252.80;;;;;;5053625;28;20036;-55
2023/12/23 02:12:51;;;;;;;153.77;92.93;;;154.30;2252.80;;;;;;5053092;28;20454;-57
2023/12/23 02:15:19;;;;;;;86.15;51.28;;;154.40;2252.80;;;;;;5053323;28;20082;-58
2023/12/23 02:17:44;;;;;;;41.53;23.40;;;179.20;2252.80;;;;;;5053602;28;20024;-55
2023/12/23 02:20:10;;;;;;;22.08;14.93;;;154.30;2252.80;;;;;;5053228;28;20520;-55
2023/12/23 02:22:38;;;;;;;40.45;23.02;;;154.50;2252.80;;;;;;5053046;28;20047;-54
2023/12/23 02:25:05;;;;;;;11.45;6.65;;;179.60;2252.80;;;;;;5053115;28;20017;-57
2023/12/23 02:27:38;;;;;;;40.25;22.55;;;204.90;2252.80;;;;;;5034971;28;20033;-55
2023/12/23 02:30:05;;;;;;;22.27;12.93;;;205.30;2252.80;;;;;;5052948;28;20112;-57
2023/12/23 02:32:32;;;;;;;23.20;13.32;;;205.40;2252.80;;;;;;5052896;28;20435;-58
2023/12/23 02:34:57;;;;;;;12.30;8.48;;;205.70;2252.80;;;;;;5053055;28;20028;-56
2023/12/23 02:40:45;;;;;;;8.25;6.22;;;230.90;2252.80;;;;;;5053949;28;20169;-56
2023/12/23 02:43:11;;;;;;;8.90;6.03;;;231.20;2252.80;;;;;;5062038;28;20120;-57
2023/12/23 02:45:36;;;;;;;10.52;5.55;;;256.20;2227.20;;;;;;5053209;28;20029;-57
2023/12/23 02:48:04;;;;;;;12.48;5.85;;;256.40;2201.60;;;;;;5050813;28;20032;-55
2023/12/23 02:50:29;;;;;;;6.07;4.18;;;256.60;2150.40;;;;;;5051701;28;20045;-56
2023/12/23 02:52:55;;;;;;;4.50;2.90;;;281.60;2124.80;;;;;;5056335;28;20105;-57
2023/12/23 02:55:21;;;;;;;6.72;3.85;;;281.90;2073.60;;;;;;5068381;28;20024;-56
2023/12/23 02:57:46;;;;;;;4.15;2.25;;;282.30;1996.80;;;;;;5060408;28;20395;-55
2023/12/23 03:00:13;;;;;;;11.38;7.90;;;307.30;1971.20;;;;;;5063458;28;20025;-56
2023/12/23 03:02:38;;;;;;;3.20;1.83;;;307.40;1971.20;;;;;;5068488;28;20035;-55
2023/12/23 03:05:05;;;;;;;3.72;1.80;;;307.50;1945.60;;;;;;5052887;28;20025;-57
2023/12/23 03:07:31;;;;;;;2.95;1.77;;;307.60;1945.60;;;;;;5048826;28;20516;-56
2023/12/23 03:09:57;;;;;;;3.70;1.92;;;307.80;1894.40;;;;;;5048864;28;20033;-56
2023/12/23 03:12:22;;;;;;;4.45;2.33;;;307.90;1920.00;;;;;;5048602;28;20116;-56
2023/12/23 03:14:48;;;;;;;3.45;2.28;;;307.90;1894.40;;;;;;5048943;28;20115;-56
2023/12/23 03:17:14;;;;;;;2.83;1.73;;;308.00;1894.40;;;;;;5048734;28;20017;-56
2023/12/23 03:19:42;;;;;;;3.42;2.13;;;308.10;1894.40;;;;;;5048748;28;20029;-56
2023/12/23 03:22:07;;;;;;;4.40;2.80;;;308.10;1868.80;;;;;;5048558;28;20029;-56
2023/12/23 03:24:33;;;;;;;4.25;3.60;;;308.10;1868.80;;;;;;5048501;28;20048;-56
2023/12/23 03:26:59;;;;;;;5.40;3.15;;;332.80;1868.80;;;;;;5049379;28;20025;-56
2023/12/23 03:29:24;;;;;;;3.90;1.80;;;332.90;1868.80;;;;;;5048519;28;20379;-55
2023/12/23 03:31:50;;;;;;;8.57;5.03;;;332.90;1868.80;;;;;;5048854;28;20017;-57
2023/12/23 03:34:16;;;;;;;2.33;1.52;;;332.90;1868.80;;;;;;5048214;28;20036;-57
2023/12/23 03:36:42;;;;;;;4.40;2.15;;;332.90;1843.20;;;;;;5048616;28;20025;-56
2023/12/23 03:39:08;;;;;;;2.90;1.67;;;332.90;1868.80;;;;;;5048137;28;20092;-57
2023/12/23 03:41:33;;;;;;;5.75;3.20;;;332.90;1868.80;;;;;;5048578;28;20027;-57
2023/12/23 03:43:59;;;;;;;4.32;2.05;;;332.90;1868.80;;;;;;5048072;28;20131;-56
2023/12/23 03:46:27;;;;;;;2.92;1.63;;;333.00;1843.20;;;;;;5048972;28;20122;-56
2023/12/23 03:48:53;;;;;;;6.78;5.55;;;333.10;1843.20;;;;;;5048417;28;20029;-57
2023/12/23 03:51:21;;;;;;;7.47;4.57;;;333.00;1843.20;;;;;;5048645;28;20464;-58
2023/12/23 03:53:46;;;;;;;4.57;2.35;;;333.00;1868.80;;;;;;5048229;28;20036;-56
2023/12/23 03:56:12;;;;;;;7.82;4.57;;;333.00;1843.20;;;;;;5049020;28;20033;-56
2023/12/23 03:58:39;;;;;;;3.58;2.00;;;333.00;1843.20;;;;;;5048244;28;20587;-55
2023/12/23 04:01:04;;;;;;;3.30;1.85;;;333.00;1843.20;;;;;;5048823;28;20025;-56
2023/12/23 04:03:30;;;;;;;5.70;2.97;;;333.10;1843.20;;;;;;5048383;28;20039;-56
2023/12/23 04:05:56;;;;;;;33.92;18.85;;;333.00;1843.20;;;;;;5048052;28;20052;-56
2023/12/23 04:08:22;;;;;;;11.63;7.30;;;333.00;1868.80;;;;;;5048316;28;20040;-56
2023/12/23 04:10:48;;;;;;;12.75;7.90;;;332.90;1894.40;;;;;;5049935;28;20125;-56
2023/12/23 04:13:16;;;;;;;19.83;12.98;;;332.80;1920.00;;;;;;5051315;28;20060;-56
2023/12/23 04:15:42;;;;;;;10.02;6.03;;;307.90;1945.60;;;;;;5052271;28;20111;-56
2023/12/23 04:18:07;;;;;;;23.88;14.57;;;307.20;2048.00;;;;;;5051806;28;20079;-56
2023/12/23 04:20:33;;;;;;;17.58;8.07;;;282.00;2099.20;;;;;;5051731;28;20159;-56
2023/12/23 04:22:59;;;;;;;13.70;7.53;;;256.30;2227.20;;;;;;5051758;28;20028;-56
2023/12/23 04:25:24;;;;;;;11.38;8.75;;;231.20;2252.80;;;;;;5052094;28;20568;-55
2023/12/23 04:27:51;;;;;;;21.52;13.80;;;230.90;2252.80;;;;;;5051547;28;20548;-55
2023/12/23 04:30:17;;;;;;;22.92;15.02;;;230.80;2252.80;;;;;;5051660;28;20028;-55
2023/12/23 04:32:43;;;;;;;27.35;16.42;;;230.70;2252.80;;;;;;5051357;28;20471;-57
2023/12/23 04:35:09;;;;;;;18.83;12.48;;;230.60;2252.80;;;;;;5051744;28;20523;-55
2023/12/23 04:37:40;;;;;;;19.05;11.38;;;205.70;2252.80;;;;;;5051335;28;20017;-56
2023/12/23 04:40:06;;;;;;;11.15;7.00;;;205.60;2252.80;;;;;;5051352;28;20052;-56
2023/12/23 04:42:32;;;;;;;8.63;6.68;;;205.60;2252.80;;;;;;5050942;28;20047;-55
2023/12/23 04:44:58;;;;;;;19.33;12.68;;;205.70;2252.80;;;;;;5051460;28;20021;-55
2023/12/23 04:47:24;;;;;;;11.02;7.63;;;205.70;2252.80;;;;;;5051407;28;20020;-56
2023/12/23 04:49:50;;;;;;;8.38;5.75;;;205.70;2252.80;;;;;;5051356;28;20411;-55
2023/12/23 04:52:15;;;;;;;15.93;10.90;;;205.40;2252.80;;;;;;5050902;28;20025;-56
2023/12/23 04:54:41;;;;;;;10.73;6.75;;;205.50;2252.80;;;;;;5051001;28;20029;-55
2023/12/23 04:57:07;;;;;;;7.78;5.63;;;205.50;2252.80;;;;;;5050672;28;20017;-56
2023/12/23 04:59:33;;;;;;;9.20;6.20;;;205.50;2252.80;;;;;;5051170;28;20065;-55
2023/12/23 05:01:58;;;;;;;9.93;6.13;;;205.30;2252.80;;;;;;5051170;28;20123;-55
2023/12/23 05:04:25;;;;;;;8.90;6.68;;;205.30;2252.80;;;;;;5051363;28;20037;-56
2023/12/23 05:06:50;;;;;;;7.65;6.22;;;205.20;2252.80;;;;;;5050827;28;20059;-55
2023/12/23 05:09:16;;;;;;;8.73;6.32;;;205.20;2252.80;;;;;;5050715;28;20112;-55
2023/12/23 05:11:42;;;;;;;10.95;5.47;;;205.30;2252.80;;;;;;5050970;28;20032;-55
2023/12/23 05:14:08;;;;;;;8.80;5.63;;;205.20;2252.80;;;;;;5050125;28;20049;-55
2023/12/23 05:16:33;;;;;;;8.60;5.88;;;205.20;2252.80;;;;;;5050597;28;20017;-56
2023/12/23 05:18:59;;;;;;;8.45;6.53;;;205.30;2252.80;;;;;;5050905;28;20067;-55
2023/12/23 05:21:25;;;;;;;9.88;6.28;;;205.30;2252.80;;;;;;5050336;28;20082;-55
2023/12/23 05:23:51;;;;;;;8.82;5.40;;;205.20;2252.80;;;;;;5050482;28;20033;-57
2023/12/23 05:26:19;;;;;;;12.75;7.50;;;205.30;2252.80;;;;;;5050251;28;20084;-55
2023/12/23 05:28:44;;;;;;;11.30;6.40;;;205.40;2252.80;;;;;;5050435;28;20463;-56
2023/12/23 05:31:10;;;;;;;13.23;9.15;;;205.30;2252.80;;;;;;5050559;28;20024;-54
2023/12/23 05:33:36;;;;;;;10.50;6.53;;;205.30;2252.80;;;;;;5050092;28;20028;-55
2023/12/23 05:36:02;;;;;;;11.80;7.22;;;205.40;2252.80;;;;;;5049878;28;20058;-55
2023/12/23 05:38:27;;;;;;;9.40;6.55;;;205.40;2252.80;;;;;;5050401;28;20120;-54
2023/12/23 05:40:53;;;;;;;8.95;6.00;;;205.50;2252.80;;;;;;5050098;28;20383;-54
2023/12/23 05:43:19;;;;;;;8.85;6.03;;;205.40;2252.80;;;;;;5050197;28;20122;-56
2023/12/23 05:45:45;;;;;;;6.80;5.38;;;205.30;2252.80;;;;;;5049875;28;20017;-54
2023/12/23 05:48:10;;;;;;;9.80;5.97;;;205.30;2252.80;;;;;;5050575;28;20024;-54
2023/12/23 05:50:36;;;;;;;10.40;7.70;;;205.30;2252.80;;;;;;5049688;28;20375;-55
2023/12/23 05:53:02;;;;;;;10.43;7.35;;;205.30;2252.80;;;;;;5050356;28;20032;-54
2023/12/23 05:55:28;;;;;;;8.85;5.95;;;205.30;2252.80;;;;;;5050200;28;20045;-53
2023/12/23 05:57:53;;;;;;;8.38;5.90;;;205.30;2252.80;;;;;;5050098;28;20024;-55
2023/12/23 06:00:20;;;;;;;10.32;6.63;;;205.30;2252.80;;;;;;5049886;28;20024;-54
2023/12/23 06:02:46;;;;;;;10.93;6.45;;;205.30;2252.80;;;;;;5049646;28;20116;-55
2023/12/23 06:05:12;;;;;;;9.25;5.97;;;205.40;2252.80;;;;;;5049626;28;20471;-55
2023/12/23 06:07:37;;;;;;;9.02;5.53;;;205.50;2252.80;;;;;;5049807;28;20075;-54
2023/12/23 06:10:05;;;;;;;8.85;6.13;;;205.60;2252.80;;;;;;5049424;28;20375;-55
2023/12/23 06:12:30;;;;;;;9.32;6.10;;;205.50;2252.80;;;;;;5049619;28;20075;-54
2023/12/23 06:14:57;;;;;;;9.63;7.22;;;205.50;2252.80;;;;;;5049938;28;20084;-54
2023/12/23 06:17:24;;;;;;;10.52;6.43;;;205.40;2252.80;;;;;;5049306;28;20498;-55
2023/12/23 06:19:49;;;;;;;8.43;6.20;;;205.50;2252.80;;;;;;5049154;28;20033;-54
2023/12/23 06:22:15;;;;;;;9.35;6.43;;;205.50;2252.80;;;;;;5049373;28;20024;-54
2023/12/23 06:24:41;;;;;;;24.30;21.88;;;205.60;2252.80;;;;;;5049550;28;20021;-54
2023/12/23 06:27:07;;;;;;;8.73;6.18;;;205.60;2252.80;;;;;;5054896;28;20029;-54
2023/12/23 06:29:32;;;;;;;7.43;4.78;;;205.50;2252.80;;;;;;5049551;28;20028;-53
2023/12/23 06:32:00;;;;;;;9.70;6.07;;;205.50;2252.80;;;;;;5049566;28;20029;-55
2023/12/23 06:34:25;;;;;;;6.78;4.47;;;205.40;2252.80;;;;;;5048822;28;20035;-54
2023/12/23 06:36:51;;;;;;;16.65;8.00;;;205.40;2252.80;;;;;;5049074;28;20096;-54
2023/12/23 06:39:17;;;;;;;6.88;5.18;;;205.50;2252.80;;;;;;5049237;28;20352;-55
2023/12/23 06:41:45;;;;;;;9.82;6.28;;;205.50;2252.80;;;;;;5049461;28;20121;-55
2023/12/23 06:44:10;;;;;;;9.70;6.95;;;205.50;2252.80;;;;;;5049342;28;20039;-53
2023/12/23 06:46:36;;;;;;;15.57;8.90;;;205.50;2252.80;;;;;;5048722;28;20104;-55
2023/12/23 06:49:02;;;;;;;12.65;9.25;;;205.50;2252.80;;;;;;5049258;28;20029;-55
2023/12/23 06:51:28;;;;;;;10.05;5.20;;;205.50;2252.80;;;;;;5049157;28;20109;-54
2023/12/23 06:53:55;;;;;;;11.57;7.72;;;205.50;2252.80;;;;;;5048951;28;20100;-55
2023/12/23 06:56:22;;;;;;;8.73;5.50;;;205.50;2252.80;;;;;;5048581;28;20021;-55
2023/12/23 06:58:48;;;;;;;6.93;4.20;;;205.50;2252.80;;;;;;5049004;28;20025;-55
2023/12/23 07:01:14;;;;;;;6.00;3.70;;;205.50;2252.80;;;;;;5048608;28;20057;-54
2023/12/23 07:03:43;;;;;;;11.07;7.68;;;205.50;2252.80;;;;;;5049456;28;20131;-55
2023/12/23 07:06:12;;;;;;;14.23;11.05;;;205.40;2252.80;;;;;;5048919;28;20036;-56
2023/12/23 07:08:39;;;;;;;6.60;3.70;;;205.40;2252.80;;;;;;5049260;28;20029;-54
2023/12/23 07:11:05;;;;;;;15.18;9.80;;;205.40;2252.80;;;;;;5051003;28;20052;-55
2023/12/23 07:13:32;;;;;;;9.55;4.50;;;205.40;2252.80;;;;;;5048144;28;20115;-55
2023/12/23 07:15:57;;;;;;;10.48;6.88;;;205.30;2252.80;;;;;;5048760;28;20024;-55
2023/12/23 07:18:23;;;;;;;8.20;5.10;;;205.40;2252.80;;;;;;5048979;28;20088;-56
2023/12/23 07:20:49;;;;;;;6.28;4.55;;;205.40;2252.80;;;;;;5048855;28;20028;-55
2023/12/23 07:23:15;;;;;;;8.07;6.88;;;205.40;2252.80;;;;;;5048090;28;20391;-57
2023/12/23 07:25:40;;;;;;;11.85;6.13;;;205.30;2252.80;;;;;;5048750;28;20471;-55
2023/12/23 07:28:06;;;;;;;5.95;4.63;;;205.30;2252.80;;;;;;5048353;28;20028;-55
2023/12/23 07:30:32;;;;;;;23.80;17.35;;;205.30;2252.80;;;;;;5048855;28;20128;-54
2023/12/23 07:32:58;;;;;;;7.00;4.13;;;205.30;2252.80;;;;;;5048435;28;20025;-56
2023/12/23 07:35:24;;;;;;;10.88;7.50;;;205.30;2252.80;;;;;;5048459;28;20053;-55
2023/12/23 07:37:50;;;;;;;5.80;3.33;;;205.30;2252.80;;;;;;5048994;28;20033;-55
2023/12/23 07:40:16;;;;;;;9.65;6.72;;;205.20;2252.80;;;;;;5051284;28;20023;-55
2023/12/23 07:42:42;;;;;;;5.30;3.65;;;205.30;2252.80;;;;;;5038701;28;20044;-55
2023/12/23 07:45:09;;;;;;;6.88;4.10;;;205.20;2252.80;;;;;;5049463;28;20021;-55
2023/12/23 07:47:35;;;;;;;7.93;6.10;;;205.40;2252.80;;;;;;5045375;28;20475;-56
2023/12/23 07:50:00;;;;;;;21.05;14.57;;;205.40;2252.80;;;;;;5059497;28;20040;-55
2023/12/23 07:52:26;;;;;;;13.52;9.57;;;205.40;2252.80;;;;;;5052056;28;20036;-55
2023/12/23 07:54:52;;;;;;;4.70;3.00;;;205.50;2252.80;;;;;;5055270;28;20028;-55
2023/12/23 07:57:18;;;;;;;6.00;3.47;;;205.40;2252.80;;;;;;5057070;28;20032;-55
2023/12/23 07:59:45;;;;;;;8.90;5.30;;;205.40;2252.80;;;;;;5056352;28;20028;-55
2023/12/23 08:02:10;;;;;;;7.72;4.20;;;205.50;2252.80;;;;;;5059748;28;20037;-56
2023/12/23 08:04:37;;;;;;;4.65;3.20;;;205.50;2252.80;;;;;;5061728;28;20112;-55
2023/12/23 08:07:03;;;;;;;4.18;2.75;;;205.40;2252.80;;;;;;5051812;28;20049;-55
2023/12/23 08:09:29;;;;;;;6.07;3.58;;;205.40;2252.80;;;;;;5052178;28;20306;-55
2023/12/23 08:11:55;;;;;;;11.40;8.05;;;205.40;2252.80;;;;;;5051601;28;20703;-56
2023/12/23 08:14:20;;;;;;;8.35;4.65;;;205.40;2252.80;;;;;;5051662;28;20136;-55
2023/12/23 08:16:46;;;;;;;13.65;10.80;;;205.40;2252.80;;;;;;5055045;28;20104;-56
2023/12/23 08:19:12;;;;;;;5.93;4.50;;;205.40;2252.80;;;;;;5052125;28;20029;-56
2023/12/23 08:21:38;;;;;;;15.63;12.52;;;205.60;2252.80;;;;;;5051413;28;20051;-55
2023/12/23 08:24:04;;;;;;;27.60;18.00;;;205.50;2252.80;;;;;;5051256;28;20028;-56
2023/12/23 08:26:30;;;;;;;15.93;7.70;;;205.70;2252.80;;;;;;5044714;28;20075;-55
2023/12/23 08:28:56;;;;;;;9.30;5.60;;;230.40;2252.80;;;;;;5067203;28;20355;-56
2023/12/23 08:31:21;;;;;;;8.85;5.45;;;230.40;2252.80;;;;;;5053886;28;20028;-56
2023/12/23 08:33:47;;;;;;;4.63;2.60;;;230.40;2252.80;;;;;;5051494;28;20037;-55
2023/12/23 08:36:13;;;;;;;9.20;7.38;;;230.40;2252.80;;;;;;5051404;28;20096;-55
2023/12/23 08:38:39;;;;;;;4.47;3.15;;;230.50;2252.80;;;;;;5050837;28;20112;-55
2023/12/23 08:41:04;;;;;;;11.60;9.18;;;230.60;2252.80;;;;;;5050828;28;20028;-56
2023/12/23 08:43:31;;;;;;;4.50;3.03;;;230.60;2252.80;;;;;;5044973;28;20073;-56
2023/12/23 08:45:56;;;;;;;6.25;3.03;;;230.60;2252.80;;;;;;5046811;28;20024;-57
2023/12/23 08:48:22;;;;;;;6.15;3.88;;;230.60;2252.80;;;;;;5037815;28;20025;-55
2023/12/23 08:50:48;;;;;;;20.48;15.32;;;230.70;2252.80;;;;;;5050390;28;20386;-55
2023/12/23 08:53:16;;;;;;;5.22;3.00;;;230.60;2252.80;;;;;;5050530;28;20032;-57
2023/12/23 08:55:44;;;;;;;24.42;15.02;;;230.60;2252.80;;;;;;5050882;28;20029;-55
2023/12/23 08:58:13;;;;;;;103.93;63.63;;;230.60;2252.80;;;;;;5050312;28;20036;-55
2023/12/23 09:00:39;;;;;;;31.88;20.20;;;230.70;2252.80;;;;;;5050705;28;20070;-55
2023/12/23 09:03:05;;;;;;;12.02;8.10;;;230.70;2252.80;;;;;;5050822;28;20072;-56
2023/12/23 09:05:31;;;;;;;14.38;7.85;;;230.70;2252.80;;;;;;5050457;28;20021;-56
2023/12/23 09:07:57;;;;;;;21.70;11.32;;;230.70;2252.80;;;;;;5050576;28;20021;-55
2023/12/23 09:10:23;;;;;;;20.52;13.40;;;230.60;2252.80;;;;;;5050022;28;20029;-55
2023/12/23 09:12:49;;;;;;;7.32;4.32;;;230.60;2252.80;;;;;;5050488;28;20050;-57
2023/12/23 09:15:14;;;;;;;12.75;5.93;;;230.60;2252.80;;;;;;5050056;28;20051;-56
2023/12/23 09:17:40;;;;;;;14.02;12.70;;;230.70;2252.80;;;;;;5051039;28;20017;-55
2023/12/23 09:20:07;;;;;;;21.45;15.85;;;230.50;2252.80;;;;;;5050108;28;20056;-56
2023/12/23 09:22:32;;;;;;;6.78;4.70;;;230.50;2252.80;;;;;;5050509;28;20025;-56
2023/12/23 09:24:58;;;;;;;6.78;4.57;;;230.50;2252.80;;;;;;5050325;28;20028;-62
2023/12/23 09:27:24;;;;;;;15.73;11.55;;;230.50;2252.80;;;;;;5050363;28;20024;-59
2023/12/23 09:29:50;;;;;;;21.50;13.70;;;230.60;2252.80;;;;;;5050483;28;20027;-62
2023/12/23 09:32:15;;;;;;;48.28;33.00;;;230.60;2252.80;;;;;;5050615;28;20021;-60
2023/12/23 09:34:53;;;;;;;11.95;8.45;;;230.70;2252.80;;;;;;5056718;28;20017;-63
2023/12/23 09:37:20;;;;;;;5.78;3.92;;;230.60;2252.80;;;;;;5058260;23;20009;-63
2023/12/23 09:39:46;;;;;;;6.63;4.22;;;230.70;2252.80;;;;;;5090571;28;20036;-66
2023/12/23 09:42:11;;;;;;;12.95;7.82;;;230.70;2252.80;;;;;;5090865;28;20016;-62
2023/12/23 09:44:37;;;;;;;6.50;4.60;;;230.80;2252.80;;;;;;5090434;28;20048;-69
2023/12/23 09:47:05;;;;;;;4.78;2.80;;;230.70;2252.80;;;;;;5090744;28;20024;-65
2023/12/23 09:49:31;;;;;;;13.57;10.32;;;230.60;2252.80;;;;;;5090806;28;20465;-69
2023/12/23 09:51:58;;;;;;;17.85;12.48;;;230.70;2252.80;;;;;;5087169;28;20031;-69
2023/12/23 09:54:27;;;;;;;5.47;3.08;;;230.70;2252.80;;;;;;5090625;28;20032;-63
2023/12/23 09:56:52;;;;;;;5.35;3.45;;;230.50;2252.80;;;;;;5090656;28;20681;-68
2023/12/23 09:59:19;;;;;;;5.68;3.60;;;230.60;2252.80;;;;;;5090625;28;20043;-63
2023/12/23 10:01:45;;;;;;;10.45;7.53;;;230.70;2252.80;;;;;;5090254;28;20446;-61
2023/12/23 10:04:11;;;;;;;13.75;8.82;;;230.70;2252.80;;;;;;5073362;28;20063;-62
2023/12/23 10:06:36;;;;;;;26.77;14.05;;;230.70;2252.80;;;;;;5076767;28;20024;-63
2023/12/23 10:09:03;;;;;;;33.90;20.38;;;230.70;2252.80;;;;;;5089335;28;20124;-62
2023/12/23 10:11:30;;;;;;;23.75;15.63;;;230.80;2252.80;;;;;;5090315;28;20059;-62
2023/12/23 10:13:56;;;;;;;16.42;11.95;;;230.90;2252.80;;;;;;5089523;28;20052;-63
2023/12/23 10:16:22;;;;;;;25.17;17.15;;;230.90;2252.80;;;;;;5090177;28;20416;-69
2023/12/23 10:18:48;;;;;;;72.80;46.15;;;205.70;2252.80;;;;;;5089991;28;20020;-63
2023/12/23 10:21:14;;;;;;;18.38;11.75;;;231.00;2252.80;;;;;;5089811;28;20130;-63
2023/12/23 10:23:40;;;;;;;37.90;23.85;;;231.00;2252.80;;;;;;5089803;28;20076;-62
2023/12/23 10:26:06;;;;;;;23.15;15.73;;;231.00;2252.80;;;;;;5089425;28;20052;-70
2023/12/23 10:28:36;;;;;;;49.22;31.73;;;231.00;2252.80;;;;;;5089950;28;20042;-61
2023/12/23 10:31:02;;;;;;;11.95;8.70;;;230.80;2252.80;;;;;;5089747;28;20028;-69
2023/12/23 10:33:31;;;;;;;22.10;14.27;;;230.90;2252.80;;;;;;5089995;28;20112;-63
2023/12/23 10:35:58;;;;;;;49.17;32.47;;;230.70;2252.80;;;;;;5089452;28;20069;-67
2023/12/23 10:38:26;;;;;;;56.45;36.72;;;230.90;2252.80;;;;;;5089136;28;20031;-61
2023/12/23 10:41:17;;;;;;;30.70;21.42;;;230.90;2252.80;;;;;;5089794;28;20028;-62
2023/12/23 10:43:45;;;;;;;69.00;44.42;;;230.90;2252.80;;;;;;5078470;28;20034;-62
2023/12/23 10:46:12;;;;;;;74.82;49.47;;;230.80;2252.80;;;;;;5089480;28;20032;-62
2023/12/23 10:48:39;;;;;;;145.93;78.38;;;230.80;2252.80;;;;;;5089216;28;20024;-70
2023/12/23 10:51:05;;;;;;;326.15;171.07;;;230.40;2252.80;;;;;;5092672;28;20022;-69
2023/12/23 10:56:55;;;;;;;30.92;19.38;;;205.70;2252.80;;;;;;5113739;28;20030;-67
2023/12/23 10:59:21;;;;;;;60.53;39.00;;;205.50;2252.80;;;;;;5113414;28;20031;-67
2023/12/23 11:01:47;;;;;;;81.80;47.78;;;205.70;2252.80;;;;;;5113711;28;20024;-68
2023/12/23 11:04:13;;;;;;;90.38;46.92;;;230.40;2252.80;;;;;;5113603;28;20122;-64
2023/12/23 11:06:44;;;;;;;131.68;59.25;;;205.70;2252.80;;;;;;5113735;28;20460;-67
2023/12/23 11:12:33;;;;;;;52.72;32.40;;;230.40;2252.80;;;;;;5113544;28;20030;-68
2023/12/23 11:14:59;;;;;;;137.20;86.18;;;230.60;2252.80;;;;;;5113383;28;20023;-63
2023/12/23 11:17:29;;;;;;;49.38;31.83;;;230.60;2252.80;;;;;;5113296;28;20020;-65
2023/12/23 11:19:59;;;;;;;27.83;17.35;;;230.60;2252.80;;;;;;5115707;28;20080;-62
2023/12/23 11:28:54;;;;;;;18.92;14.50;;;230.70;2252.80;;;;;;5117325;28;20035;-64
2023/12/23 11:31:19;;;;;;;16.52;11.50;;;230.70;2252.80;;;;;;5117498;28;20015;-67
2023/12/23 11:33:45;;;;;;;12.10;6.65;;;230.70;2252.80;;;;;;5116856;28;20469;-64
2023/12/23 11:36:12;;;;;;;19.40;13.50;;;230.90;2252.80;;;;;;5116971;28;20028;-61
2023/12/23 11:38:50;;;;;;;122.88;74.15;;;230.80;2252.80;;;;;;5116632;28;20051;-68
2023/12/23 11:41:16;;;;;;;24.95;15.18;;;230.70;2252.80;;;;;;5117153;28;20091;-67
2023/12/23 11:43:46;;;;;;;105.75;58.92;;;230.70;2252.80;;;;;;5117062;28;20039;-62
2023/12/23 11:46:17;;;;;;;98.53;51.17;;;230.70;2252.80;;;;;;5117153;28;20025;-65
2023/12/23 11:48:43;;;;;;;64.97;39.40;;;230.70;2252.80;;;;;;5116733;28;20058;-63
2023/12/23 11:51:12;;;;;;;123.22;81.35;;;230.90;2252.80;;;;;;5116942;28;20023;-60
2023/12/23 11:53:39;;;;;;;50.55;31.40;;;230.90;2252.80;;;;;;5116881;28;20072;-63
2023/12/23 11:56:06;;;;;;;30.60;21.45;;;230.60;2252.80;;;;;;5116854;28;20066;-66
2023/12/23 11:58:33;;;;;;;32.17;23.60;;;230.60;2252.80;;;;;;5116897;28;20016;-66
2023/12/23 12:00:59;;;;;;;32.80;20.27;;;230.70;2252.80;;;;;;5116453;28;20122;-61
2023/12/23 12:03:26;;;;;;;37.25;22.00;;;230.70;2252.80;;;;;;5116344;28;20035;-62
2023/12/23 12:05:56;;;;;;;96.30;56.42;;;230.70;2252.80;;;;;;5116644;28;20031;-66
2023/12/23 12:08:22;;;;;;;59.35;38.60;;;230.70;2252.80;;;;;;5116389;28;20354;-67
2023/12/23 12:10:49;;;;;;;27.58;16.88;;;230.70;2252.80;;;;;;5116349;28;20036;-63
2023/12/23 12:13:15;;;;;;;43.75;34.47;;;230.70;2252.80;;;;;;5116310;28;20084;-66
2023/12/23 12:15:41;;;;;;;29.10;19.75;;;230.80;2252.80;;;;;;5116226;28;20019;-63
2023/12/23 12:18:07;;;;;;;36.28;22.83;;;230.90;2252.80;;;;;;5116138;28;20438;-62
2023/12/23 12:20:33;;;;;;;40.45;28.17;;;230.80;2252.80;;;;;;5116463;28;20098;-63
2023/12/23 12:23:02;;;;;;;36.78;25.63;;;230.70;2252.80;;;;;;5116402;28;20028;-62
2023/12/23 12:25:31;;;;;;;49.85;32.92;;;230.90;2252.80;;;;;;5116001;28;20088;-67